Grizzly Air Cargo 5384


PANC
Ted Stevens Anchorage International Airport
Anchorage, Alaska, US
PACD
Cold Bay Airport
Cold Bay, Alaska, US

Activity Log

Date Flight Route Aircraft Duration
11/21/2020 GRZ5384 TED J115 CDB SF34 2h 35m

Route Details

Aircraft Information
Primary: Saab 340AF
Backup: Not Available
Route Data
Distance: 623nm
Sched. Duration: 2h 00m
Avg. Duration: 2h 35m (+36m)
Times Flown: 1
Recm'd Route: TED J115 CDB
Planned Altitude: 16,000ft
Origin Wx: PANC 190853Z 17008G14KT 7SM -RA FEW006 BKN011 OVC020 01/M01 A2917 RMK AO2 PRESRR SLP879 P0002 60009 T00111006 400391006 53048
Dest. Wx: PACD 190853Z AUTO 15012KT 10SM OVC100 M04/M08 A2963 RMK AO2 SLP036 T10391083 410281094 58014 TSNO $
Notes:

Financial History
Total Freight: 7,310lbs
Average Load: 7,310lbs/flt
Fuel Used: 1,975lbs
Avg. Fuel Used: 1,975lbs/flt
Fuel Expense: $2,568
Avg. Fuel Expense: $2,568
Avg. Fuel Cost: $1.30/lbs
Total Gross Income: $16,448
Pilot Pay: $229
Total Expenses: $1,828
Total Revenue: $11,511
Average Revenue: $16,447.50